createdAt,value
2018-01-15T10:52:53.051Z,4304
2018-01-15T10:53:50.978Z,4312
2018-01-15T10:54:50.473Z,4312
2018-01-15T10:55:50.683Z,4308
2018-01-15T10:56:50.439Z,4284
2018-01-15T10:57:50.772Z,4236
2018-01-15T10:58:50.665Z,4180
2018-01-15T10:59:50.892Z,4144
2018-01-15T11:00:50.631Z,4128
2018-01-15T11:01:50.888Z,4144
2018-01-15T11:02:51.816Z,4152
2018-01-15T11:03:50.596Z,4204
2018-01-15T11:04:50.848Z,4288
2018-01-15T11:05:50.852Z,4348
2018-01-15T11:06:50.574Z,4392
2018-01-15T11:07:50.560Z,4416
2018-01-15T11:08:50.376Z,4452
2018-01-15T11:09:50.557Z,4508
2018-01-15T11:10:50.546Z,4568
2018-01-15T11:11:50.835Z,4580
2018-01-15T11:12:50.521Z,4512
2018-01-15T11:13:50.797Z,4416
2018-01-15T11:14:50.510Z,4308
2018-01-15T11:15:50.509Z,4180
2018-01-15T11:16:50.516Z,4044
2018-01-15T11:17:50.758Z,3936
2018-01-15T11:18:50.489Z,3868
2018-01-15T11:19:50.250Z,3792
2018-01-15T11:20:50.736Z,3732
2018-01-15T11:21:50.461Z,3672
2018-01-15T11:22:50.910Z,3600
2018-01-15T11:23:50.787Z,3536
2018-01-15T11:24:50.438Z,3480
2018-01-15T11:25:50.735Z,3432
2018-01-15T11:26:50.455Z,3372
2018-01-15T11:27:50.706Z,3284
2018-01-15T11:28:50.653Z,3156
2018-01-15T11:29:50.391Z,3024
2018-01-15T11:30:50.679Z,2904
2018-01-15T11:31:50.445Z,2776
2018-01-15T11:32:50.378Z,2648
2018-01-15T11:33:50.622Z,2556
2018-01-15T11:34:50.369Z,2452
2018-01-15T11:35:50.375Z,2320
2018-01-15T11:36:50.359Z,2224
2018-01-15T11:37:53.555Z,2164
2018-01-15T11:38:50.345Z,2100
2018-01-15T11:39:50.336Z,2044
2018-01-15T11:40:50.631Z,2036
2018-01-15T11:41:50.104Z,2096
2018-01-15T11:42:50.076Z,2212
2018-01-15T11:43:50.622Z,2348
2018-01-15T11:44:50.544Z,2468
2018-01-15T11:45:50.044Z,2564
2018-01-15T11:46:50.044Z,2640
2018-01-15T11:47:50.284Z,2684
2018-01-15T11:48:50.272Z,2720
2018-01-15T11:49:50.017Z,2776
2018-01-15T11:50:50.265Z,2860
2018-01-15T11:51:50.495Z,2956
2018-01-15T11:52:50.484Z,3056
2018-01-15T11:53:50.479Z,3144
2018-01-15T11:54:50.224Z,3220
2018-01-15T11:55:50.043Z,3320
2018-01-15T11:56:50.456Z,3440
2018-01-15T11:57:49.945Z,3564
2018-01-15T11:58:50.442Z,3668
2018-01-15T11:59:49.945Z,3748
2018-01-15T12:00:49.932Z,3836
2018-01-15T12:01:50.455Z,3924
2018-01-15T12:02:50.443Z,4000
2018-01-15T12:03:50.408Z,4048
2018-01-15T12:04:50.174Z,4096
2018-01-15T12:05:50.393Z,4144
2018-01-15T12:06:50.161Z,4196
2018-01-15T12:07:50.378Z,4228
2018-01-15T12:08:49.909Z,4240
2018-01-15T12:09:49.869Z,4232
2018-01-15T12:10:50.117Z,4188
2018-01-15T12:11:49.856Z,4156
2018-01-15T12:12:49.854Z,4152
2018-01-15T12:13:49.838Z,4152
2018-01-15T12:14:50.090Z,4152
2018-01-15T12:15:50.085Z,4148
2018-01-15T12:16:50.370Z,4152
2018-01-15T12:17:49.818Z,4160
2018-01-15T12:18:50.059Z,4180
2018-01-15T12:19:50.072Z,4204
2018-01-15T12:20:50.061Z,4224
2018-01-15T12:21:49.784Z,4244
2018-01-15T12:22:50.367Z,4244
2018-01-15T12:23:50.488Z,4188
2018-01-15T12:24:50.327Z,4120
2018-01-15T12:25:49.516Z,4076
2018-01-15T12:26:49.539Z,4036
2018-01-15T12:27:49.563Z,3992
2018-01-15T12:28:49.756Z,3916
2018-01-15T12:29:50.248Z,3856
2018-01-15T12:30:49.764Z,3820
2018-01-15T12:31:49.980Z,3836
2018-01-15T12:32:49.979Z,3856
2018-01-15T12:33:50.291Z,3896
2018-01-15T12:34:49.957Z,3896
2018-01-15T12:35:50.264Z,3916
2018-01-15T12:36:49.716Z,3932
2018-01-15T12:37:49.946Z,3992
2018-01-15T12:38:52.699Z,4064
2018-01-15T12:39:49.422Z,4072
2018-01-15T12:40:49.674Z,4080
2018-01-15T12:41:49.668Z,4112
2018-01-15T12:42:49.663Z,4220
2018-01-15T12:43:49.654Z,4372
2018-01-15T12:44:49.905Z,4472
2018-01-15T12:45:49.643Z,4572
2018-01-15T12:46:49.895Z,4672
2018-01-15T12:47:49.892Z,4760
2018-01-15T12:48:49.876Z,4820
2018-01-15T12:49:49.910Z,4896
2018-01-15T12:50:49.876Z,5196
2018-01-15T12:51:51.085Z,5472
2018-01-15T12:52:51.312Z,5376
2018-01-15T12:53:50.679Z,5280
2018-01-15T12:54:49.863Z,5136
2018-01-15T12:55:49.858Z,5120
2018-01-15T12:56:50.093Z,4992
2018-01-15T12:57:50.088Z,4964
2018-01-15T12:58:49.654Z,4896
2018-01-15T12:59:50.080Z,4800
2018-01-15T13:00:49.815Z,4632
2018-01-15T13:01:49.887Z,4528
2018-01-15T13:02:50.055Z,4448
2018-01-15T13:03:50.394Z,4376
2018-01-15T13:04:50.610Z,4308
2018-01-15T13:05:50.761Z,4252
2018-01-15T13:06:49.765Z,4220
2018-01-15T13:07:49.778Z,4192
2018-01-15T13:08:51.096Z,4156
2018-01-15T13:09:49.246Z,4112
2018-01-15T13:10:49.489Z,4064
2018-01-15T13:11:50.005Z,4008
2018-01-15T13:12:49.982Z,3940
2018-01-15T13:13:49.731Z,3872
2018-01-15T13:14:49.740Z,3796
2018-01-15T13:15:49.463Z,3708
2018-01-15T13:16:49.967Z,3608
2018-01-15T13:17:49.710Z,3508
2018-01-15T13:18:50.090Z,3408
2018-01-15T13:19:49.198Z,3320
2018-01-15T13:20:49.436Z,3252
2018-01-15T13:21:49.437Z,3204
2018-01-15T13:22:49.674Z,3164
2018-01-15T13:23:49.661Z,3144
2018-01-15T13:24:49.415Z,3128
2018-01-15T13:25:49.654Z,3112
2018-01-15T13:26:49.668Z,3096
2018-01-15T13:27:49.950Z,3080
2018-01-15T13:28:49.646Z,3076
2018-01-15T13:29:49.375Z,3068
2018-01-15T13:30:49.625Z,3064
2018-01-15T13:31:49.371Z,3056
2018-01-15T13:32:49.385Z,3044
2018-01-15T13:33:49.606Z,3036
2018-01-15T13:34:49.594Z,3036
2018-01-15T13:35:49.588Z,3044
2018-01-15T13:36:49.322Z,3064
2018-01-15T13:37:49.694Z,3084
2018-01-15T13:38:49.591Z,3092
2018-01-15T13:39:49.304Z,3088
2018-01-15T13:40:49.712Z,3068
2018-01-15T13:41:49.050Z,3052
2018-01-15T13:42:49.546Z,3044
2018-01-15T13:43:49.299Z,3036
2018-01-15T13:44:49.531Z,3048
2018-01-15T13:45:49.278Z,3080
2018-01-15T13:46:49.021Z,3128
2018-01-15T13:47:49.152Z,3188
2018-01-15T13:48:49.260Z,3260
2018-01-15T13:49:49.767Z,3348
2018-01-15T13:50:49.258Z,3436
2018-01-15T13:51:49.742Z,3528
2018-01-15T13:52:49.486Z,3592
2018-01-15T13:53:49.477Z,3632
2018-01-15T13:54:49.670Z,3652
2018-01-15T13:55:48.965Z,3648
2018-01-15T13:56:49.475Z,3636
2018-01-15T13:57:49.216Z,3592
2018-01-15T13:58:49.450Z,3508
2018-01-15T13:59:49.665Z,3396
2018-01-15T14:00:49.446Z,3268
2018-01-15T14:01:49.433Z,3144
2018-01-15T14:02:49.425Z,3036
2018-01-15T14:03:49.432Z,2944
2018-01-15T14:04:49.416Z,2884
2018-01-15T14:05:49.160Z,2820
2018-01-15T14:06:49.647Z,2772
2018-01-15T14:07:49.406Z,2732
2018-01-15T14:08:49.134Z,2688
2018-01-15T14:09:51.027Z,2628
2018-01-15T14:10:49.624Z,2580
2018-01-15T14:11:49.375Z,2544
2018-01-15T14:12:49.353Z,2500
2018-01-15T14:13:49.354Z,2456
2018-01-15T14:14:48.864Z,2412
2018-01-15T14:15:49.341Z,2384
2018-01-15T14:16:49.077Z,2364
2018-01-15T14:17:49.326Z,2356
2018-01-15T14:18:49.580Z,2344
2018-01-15T14:19:49.326Z,2328
2018-01-15T14:20:49.065Z,2296
2018-01-15T14:21:49.554Z,2260
2018-01-15T14:22:49.061Z,2216
2018-01-15T14:23:49.543Z,2160
2018-01-15T14:24:49.486Z,2088
2018-01-15T14:25:49.276Z,2004
2018-01-15T14:26:49.065Z,1912
2018-01-15T14:27:49.277Z,1808
2018-01-15T14:28:49.266Z,1708
2018-01-15T14:29:49.010Z,1616
2018-01-15T14:30:49.026Z,1524
2018-01-15T14:31:49.233Z,1432
2018-01-15T14:32:49.245Z,1344
2018-01-15T14:33:49.227Z,1264
2018-01-15T14:34:49.096Z,1188
2018-01-15T14:35:49.218Z,1124
2018-01-15T14:36:49.332Z,1068
2018-01-15T14:37:49.269Z,1012
2018-01-15T14:38:48.957Z,968
2018-01-15T14:39:52.602Z,924
2018-01-15T14:40:49.444Z,892
2018-01-15T14:41:49.179Z,868
2018-01-15T14:42:49.158Z,848
2018-01-15T14:43:48.914Z,832
2018-01-15T14:44:49.149Z,824
2018-01-15T14:45:49.394Z,820
2018-01-15T14:46:49.141Z,816
2018-01-15T14:47:49.379Z,820
2018-01-15T14:48:48.618Z,820
2018-01-15T14:49:49.377Z,816
2018-01-15T14:50:48.867Z,816
2018-01-15T14:51:49.108Z,816
2018-01-15T14:52:48.854Z,808
2018-01-15T14:53:49.088Z,792
2018-01-15T14:54:49.341Z,768
2018-01-15T14:55:49.086Z,732
2018-01-15T14:56:49.065Z,692
2018-01-15T14:57:49.318Z,656
2018-01-15T14:58:49.312Z,612
2018-01-15T14:59:49.051Z,576
2018-01-15T15:00:49.293Z,544
2018-01-15T15:01:49.033Z,512
2018-01-15T15:02:49.032Z,484
2018-01-15T15:03:48.772Z,464
2018-01-15T15:04:48.768Z,444
2018-01-15T15:05:49.262Z,428
2018-01-15T15:06:49.001Z,412
2018-01-15T15:07:48.988Z,400
2018-01-15T15:08:48.740Z,392
2018-01-15T15:09:49.225Z,392
2018-01-15T15:10:48.985Z,388
2018-01-15T15:11:48.972Z,384
2018-01-15T15:12:49.091Z,380
2018-01-15T15:13:49.024Z,380
2018-01-15T15:14:48.703Z,384
2018-01-15T15:15:48.700Z,388
2018-01-15T15:16:48.943Z,396
2018-01-15T15:17:48.687Z,404
2018-01-15T15:18:48.939Z,412
2018-01-15T15:19:48.680Z,416
2018-01-15T15:20:49.158Z,420
2018-01-15T15:21:49.165Z,424
2018-01-15T15:22:49.192Z,412
2018-01-15T15:23:48.886Z,400
2018-01-15T15:24:49.139Z,384
2018-01-15T15:25:49.132Z,364
2018-01-15T15:26:49.167Z,340
2018-01-15T15:27:48.699Z,316
2018-01-15T15:28:48.851Z,296
2018-01-15T15:29:48.853Z,276
2018-01-15T15:30:48.826Z,256
2018-01-15T15:31:48.834Z,240
2018-01-15T15:32:48.819Z,224
2018-01-15T15:33:48.818Z,208
2018-01-15T15:34:48.806Z,192
2018-01-15T15:35:49.074Z,176
2018-01-15T15:36:48.533Z,164
2018-01-15T15:37:48.531Z,152
2018-01-15T15:38:49.083Z,144
2018-01-15T15:39:49.027Z,136
2018-01-15T15:40:50.620Z,124
2018-01-15T15:41:48.515Z,116
2018-01-15T15:42:48.750Z,104
2018-01-15T15:43:48.750Z,100
2018-01-15T15:44:48.753Z,88
2018-01-15T15:45:48.728Z,84
2018-01-15T15:46:48.710Z,80
2018-01-15T15:47:48.965Z,72
2018-01-15T15:48:48.954Z,68
2018-01-15T15:49:49.048Z,64
2018-01-15T15:50:48.720Z,64
2018-01-15T15:51:48.937Z,60
2018-01-15T15:52:48.670Z,56
2018-01-15T15:53:48.413Z,52
2018-01-15T15:54:48.913Z,44
2018-01-15T15:55:49.199Z,40
2018-01-15T15:56:48.649Z,36
2018-01-15T15:57:48.629Z,36
2018-01-15T15:58:48.619Z,32
2018-01-15T15:59:48.358Z,28
2018-01-15T16:00:48.366Z,28
2018-01-15T16:01:48.606Z,28
2018-01-15T16:02:48.351Z,24
2018-01-15T16:03:48.853Z,24
2018-01-15T16:04:48.327Z,20
2018-01-15T16:05:48.838Z,20
2018-01-15T16:06:48.322Z,20
2018-01-15T16:07:48.571Z,16
2018-01-15T16:08:48.297Z,16
2018-01-15T16:09:48.798Z,16
2018-01-15T16:10:50.437Z,16
2018-01-15T16:11:48.779Z,12
2018-01-15T16:12:48.268Z,12
2018-01-15T16:13:48.509Z,8
2018-01-15T16:14:48.509Z,8
2018-01-15T16:15:48.752Z,4
2018-01-15T16:16:48.245Z,8
2018-01-15T16:17:48.496Z,8
2018-01-15T16:18:48.493Z,4
2018-01-15T16:19:48.743Z,4
2018-01-15T16:20:48.503Z,4
2018-01-15T16:21:48.721Z,0
2018-01-15T16:22:48.466Z,4
2018-01-15T16:23:48.181Z,4
2018-01-15T16:24:48.438Z,0
2018-01-15T16:25:47.927Z,0
2018-01-15T16:26:48.443Z,0
2018-01-15T16:27:48.408Z,0
2018-01-15T16:28:48.409Z,0
2018-01-15T16:29:48.648Z,0
2018-01-15T16:30:48.137Z,0
2018-01-15T16:31:48.559Z,0
2018-01-15T16:32:48.722Z,0
2018-01-15T16:33:48.380Z,0
2018-01-15T16:34:48.362Z,0
2018-01-15T16:35:48.662Z,0
2018-01-15T16:36:48.089Z,0
2018-01-15T16:37:48.334Z,0
2018-01-15T16:38:48.331Z,0
2018-01-15T16:39:47.826Z,0
2018-01-15T16:40:48.370Z,0
2018-01-15T16:41:53.687Z,0
2018-01-15T16:42:48.049Z,0
2018-01-15T16:43:48.317Z,0
2018-01-15T16:44:48.600Z,0
2018-01-15T16:45:48.277Z,0
2018-01-15T16:46:47.766Z,0
2018-01-15T16:47:48.337Z,0
2018-01-15T16:48:48.002Z,0
2018-01-15T16:49:47.753Z,0
2018-01-15T16:50:48.000Z,0
2018-01-15T16:51:48.505Z,0
2018-01-15T16:52:48.478Z,0
2018-01-15T16:53:47.975Z,0
2018-01-15T16:54:48.212Z,0
2018-01-15T16:55:48.211Z,0
2018-01-15T16:56:48.458Z,0
2018-01-15T16:57:48.202Z,0
2018-01-15T16:58:48.458Z,0
2018-01-15T16:59:48.273Z,0
2018-01-15T17:00:47.921Z,0
2018-01-15T17:01:48.157Z,0
2018-01-15T17:02:48.159Z,0
2018-01-15T17:03:47.932Z,0
2018-01-15T17:04:48.388Z,0
2018-01-15T17:05:47.879Z,0
2018-01-15T17:06:48.134Z,0
2018-01-15T17:07:47.885Z,0
2018-01-15T17:08:48.105Z,0
2018-01-15T17:09:48.108Z,0
2018-01-15T17:10:47.859Z,0
2018-01-15T17:11:52.101Z,0
2018-01-15T17:12:47.840Z,0
2018-01-15T17:13:48.105Z,0
2018-01-15T17:14:48.319Z,0
2018-01-15T17:15:47.807Z,0
2018-01-15T17:16:48.063Z,0
2018-01-15T17:17:48.062Z,0
2018-01-15T17:18:48.044Z,0
2018-01-15T17:19:48.285Z,0
2018-01-15T17:20:48.025Z,0
2018-01-15T17:21:47.800Z,0
2018-01-15T17:22:48.010Z,0
2018-01-15T17:23:48.072Z,0
2018-01-15T17:24:47.993Z,0
2018-01-15T17:25:48.062Z,0
2018-01-15T17:26:49.661Z,0
2018-01-15T17:27:49.482Z,0
2018-01-15T17:28:47.983Z,0
2018-01-15T17:29:48.006Z,0
2018-01-15T17:30:48.445Z,0
2018-01-15T17:31:47.942Z,0
2018-01-15T17:32:47.829Z,0
2018-01-15T17:33:47.927Z,0
2018-01-15T17:34:48.172Z,0
2018-01-15T17:35:47.664Z,0
2018-01-15T17:36:47.903Z,0
2018-01-15T17:37:48.596Z,0
2018-01-15T17:38:48.147Z,0
2018-01-15T17:39:47.876Z,0
2018-01-15T17:40:48.124Z,0
2018-01-15T17:41:47.863Z,0
2018-01-15T17:42:48.966Z,0
2018-01-15T17:43:47.613Z,0
2018-01-15T17:44:47.849Z,0
2018-01-15T17:45:47.582Z,0
2018-01-15T17:46:47.600Z,0
2018-01-15T17:47:47.600Z,0
2018-01-15T17:48:47.818Z,0
2018-01-15T17:49:47.561Z,0
2018-01-15T17:50:47.811Z,0
2018-01-15T17:51:48.048Z,0
2018-01-15T17:52:47.832Z,0
2018-01-15T17:53:47.543Z,0
2018-01-15T17:54:47.773Z,0
2018-01-15T17:55:48.055Z,0
2018-01-15T17:56:47.757Z,0
2018-01-15T17:57:48.033Z,0
2018-01-15T17:58:48.012Z,0
2018-01-15T17:59:47.736Z,0
2018-01-15T18:00:47.475Z,0
2018-01-15T18:01:47.719Z,0
2018-01-15T18:02:47.775Z,0
2018-01-15T18:03:47.482Z,0
2018-01-15T18:04:47.957Z,0
2018-01-15T18:05:47.456Z,0
2018-01-15T18:06:47.688Z,0
2018-01-15T18:07:47.437Z,0
2018-01-15T18:08:47.685Z,0
2018-01-15T18:09:47.411Z,0
2018-01-15T18:10:47.652Z,0
2018-01-15T18:11:47.399Z,0
2018-01-15T18:12:48.788Z,0
2018-01-15T18:13:47.878Z,0
2018-01-15T18:14:47.629Z,0
2018-01-15T18:15:47.866Z,0
2018-01-15T18:16:47.367Z,0
2018-01-15T18:17:47.378Z,0
2018-01-15T18:18:47.342Z,0
2018-01-15T18:19:47.338Z,0
2018-01-15T18:20:47.839Z,0
2018-01-15T18:21:47.569Z,0
2018-01-15T18:22:47.071Z,0
2018-01-15T18:23:47.848Z,0
2018-01-15T18:24:47.065Z,0
2018-01-15T18:25:47.288Z,0
2018-01-15T18:26:47.532Z,0
2018-01-15T18:27:47.530Z,0
2018-01-15T18:28:47.845Z,0
2018-01-15T18:29:47.758Z,0
2018-01-15T18:30:47.506Z,0
2018-01-15T18:31:47.252Z,0
2018-01-15T18:32:47.498Z,0
2018-01-15T18:33:47.497Z,0
2018-01-15T18:34:47.474Z,0
2018-01-15T18:35:47.481Z,0
2018-01-15T18:36:47.707Z,0
2018-01-15T18:37:47.450Z,0
2018-01-15T18:38:47.455Z,0
2018-01-15T18:39:47.454Z,0
2018-01-15T18:40:47.429Z,0
2018-01-15T18:41:47.460Z,0
2018-01-15T18:42:47.689Z,0
2018-01-15T18:43:47.412Z,0
2018-01-15T18:44:47.670Z,0
2018-01-15T18:45:47.395Z,0
2018-01-15T18:46:47.396Z,0
2018-01-15T18:47:47.633Z,0
2018-01-15T18:48:47.634Z,0
2018-01-15T18:49:47.116Z,0
2018-01-15T18:50:47.613Z,0
2018-01-15T18:51:47.360Z,0
2018-01-15T18:52:47.349Z,0
2018-01-15T18:53:47.404Z,0
2018-01-15T18:54:47.091Z,0
2018-01-15T18:55:47.069Z,0
2018-01-15T18:56:47.573Z,0
2018-01-15T18:57:47.559Z,0
2018-01-15T18:58:47.556Z,0
2018-01-15T18:59:47.057Z,0
2018-01-15T19:00:47.061Z,0
2018-01-15T19:01:47.040Z,0
2018-01-15T19:02:47.293Z,0
2018-01-15T19:03:47.294Z,0
2018-01-15T19:04:47.329Z,0
2018-01-15T19:05:47.295Z,0
2018-01-15T19:06:47.261Z,0
2018-01-15T19:07:47.279Z,0
2018-01-15T19:08:47.235Z,0
2018-01-15T19:09:47.061Z,0
2018-01-15T19:10:46.993Z,0
2018-01-15T19:11:47.214Z,0
2018-01-15T19:12:46.962Z,0
2018-01-15T19:13:47.459Z,0
2018-01-15T19:14:47.456Z,0
2018-01-15T19:15:47.195Z,0
2018-01-15T19:16:46.924Z,0
2018-01-15T19:17:46.673Z,0
2018-01-15T19:18:46.937Z,0
2018-01-15T19:19:47.434Z,0
2018-01-15T19:20:46.918Z,0
2018-01-15T19:21:46.892Z,0
2018-01-15T19:22:47.149Z,0
2018-01-15T19:23:46.882Z,0
2018-01-15T19:24:46.611Z,0
2018-01-15T19:25:47.412Z,0
2018-01-15T19:26:47.133Z,0
2018-01-15T19:27:47.097Z,0
2018-01-15T19:28:47.134Z,0
2018-01-15T19:29:46.842Z,0
2018-01-15T19:30:47.359Z,0
2018-01-15T19:31:46.834Z,0
2018-01-15T19:32:47.093Z,0
2018-01-15T19:33:46.854Z,0
2018-01-15T19:34:46.846Z,0
2018-01-15T19:35:46.814Z,0
2018-01-15T19:36:47.321Z,0
2018-01-15T19:37:47.038Z,0
2018-01-15T19:38:47.034Z,0
2018-01-15T19:39:47.056Z,0
2018-01-15T19:40:47.018Z,0
2018-01-15T19:41:46.753Z,0
2018-01-15T19:42:46.544Z,0
2018-01-15T19:43:52.254Z,0
2018-01-15T19:44:46.977Z,0
2018-01-15T19:45:47.281Z,0
2018-01-15T19:46:46.969Z,0
2018-01-15T19:47:47.232Z,0
2018-01-15T19:48:46.957Z,0
2018-01-15T19:49:47.032Z,0
2018-01-15T19:50:46.465Z,0
2018-01-15T19:51:47.206Z,0
2018-01-15T19:52:47.199Z,0
2018-01-15T19:53:46.753Z,0
2018-01-15T19:54:46.918Z,0
2018-01-15T19:55:47.226Z,0
2018-01-15T19:56:47.172Z,0
2018-01-15T19:57:46.873Z,0
2018-01-15T19:58:47.139Z,0
2018-01-15T19:59:47.172Z,0
2018-01-15T20:00:46.644Z,0
2018-01-15T20:01:46.884Z,0
2018-01-15T20:02:46.865Z,0
2018-01-15T20:03:47.193Z,0
2018-01-15T20:04:46.598Z,0
2018-01-15T20:05:47.126Z,0
2018-01-15T20:06:46.837Z,0
2018-01-15T20:07:47.100Z,0
2018-01-15T20:08:46.930Z,0
2018-01-15T20:09:47.059Z,0
2018-01-15T20:10:46.862Z,0
2018-01-15T20:11:46.803Z,0
2018-01-15T20:12:46.812Z,0
2018-01-15T20:13:46.797Z,0
2018-01-15T20:14:47.038Z,0
2018-01-15T20:15:46.276Z,0
2018-01-15T20:16:46.574Z,0
2018-01-15T20:17:46.554Z,0
2018-01-15T20:18:46.514Z,0
2018-01-15T20:19:46.793Z,0
2018-01-15T20:20:46.791Z,0
2018-01-15T20:21:46.212Z,0
2018-01-15T20:22:46.738Z,0
2018-01-15T20:23:46.744Z,0
2018-01-15T20:24:46.989Z,0
2018-01-15T20:25:46.834Z,0
2018-01-15T20:26:46.434Z,0
2018-01-15T20:27:46.696Z,0
2018-01-15T20:28:46.426Z,0
2018-01-15T20:29:46.418Z,0
2018-01-15T20:30:46.655Z,0
2018-01-15T20:31:46.686Z,0
2018-01-15T20:32:46.643Z,0
2018-01-15T20:33:46.401Z,0
2018-01-15T20:34:46.661Z,0
2018-01-15T20:35:46.631Z,0
2018-01-15T20:36:46.343Z,0
2018-01-15T20:37:46.109Z,0
2018-01-15T20:38:46.356Z,0
2018-01-15T20:39:46.634Z,0
2018-01-15T20:40:46.838Z,0
2018-01-15T20:41:46.893Z,0
2018-01-15T20:42:46.847Z,0
2018-01-15T20:43:46.847Z,0
2018-01-15T20:44:47.205Z,0
2018-01-15T20:45:46.291Z,0
2018-01-15T20:46:46.848Z,0
2018-01-15T20:47:46.575Z,0
2018-01-15T20:48:46.543Z,0
2018-01-15T20:49:46.529Z,0
2018-01-15T20:50:46.569Z,0
2018-01-15T20:51:46.520Z,0
2018-01-15T20:52:46.781Z,0
2018-01-15T20:53:46.540Z,0
2018-01-15T20:54:46.479Z,0
2018-01-15T20:55:46.532Z,0
2018-01-15T20:56:46.498Z,0
2018-01-15T20:57:46.199Z,0
2018-01-15T20:58:45.990Z,0
2018-01-15T20:59:46.459Z,0
2018-01-15T21:00:46.734Z,0
2018-01-15T21:01:45.942Z,0
2018-01-15T21:02:46.456Z,0
2018-01-15T21:03:46.190Z,0
2018-01-15T21:04:46.179Z,0
2018-01-15T21:05:46.424Z,0
2018-01-15T21:06:46.398Z,0
2018-01-15T21:07:46.385Z,0
2018-01-15T21:08:46.648Z,0
2018-01-15T21:09:46.390Z,0
2018-01-15T21:10:46.411Z,0
2018-01-15T21:11:46.366Z,0
2018-01-15T21:12:46.664Z,0
2018-01-15T21:13:46.364Z,0
2018-01-15T21:14:47.634Z,0
2018-01-15T21:15:46.366Z,0
2018-01-15T21:16:46.347Z,0
2018-01-15T21:17:46.099Z,0
2018-01-15T21:18:46.083Z,0
2018-01-15T21:19:46.592Z,0
2018-01-15T21:20:46.087Z,0
2018-01-15T21:21:46.321Z,0
2018-01-15T21:22:46.329Z,0
2018-01-15T21:23:46.304Z,0
2018-01-15T21:24:46.290Z,0
2018-01-15T21:25:46.288Z,0
2018-01-15T21:26:46.014Z,0
2018-01-15T21:27:46.020Z,0
2018-01-15T21:28:46.530Z,0
2018-01-15T21:29:46.244Z,0
2018-01-15T21:30:46.247Z,0
2018-01-15T21:31:45.990Z,0
2018-01-15T21:32:45.701Z,0
2018-01-15T21:33:45.931Z,0
2018-01-15T21:34:46.215Z,0
2018-01-15T21:35:45.981Z,0
2018-01-15T21:36:46.446Z,0
2018-01-15T21:37:46.449Z,0
2018-01-15T21:38:46.180Z,0
2018-01-15T21:39:46.417Z,0
2018-01-15T21:40:46.155Z,0
2018-01-15T21:41:46.142Z,0
2018-01-15T21:42:45.885Z,0
2018-01-15T21:43:45.926Z,0
2018-01-15T21:44:47.512Z,0
2018-01-15T21:45:46.404Z,0
2018-01-15T21:46:46.131Z,0
2018-01-15T21:47:46.113Z,0
2018-01-15T21:48:46.349Z,0
2018-01-15T21:49:46.349Z,0
2018-01-15T21:50:46.075Z,0
2018-01-15T21:51:45.818Z,0
2018-01-15T21:52:45.819Z,0
2018-01-15T21:53:46.037Z,0
2018-01-15T21:54:45.787Z,0
2018-01-15T21:55:45.820Z,0
2018-01-15T21:56:45.807Z,0
2018-01-15T21:57:46.089Z,0
2018-01-15T21:58:46.275Z,0
2018-01-15T21:59:45.752Z,0
2018-01-15T22:00:45.477Z,0
2018-01-15T22:01:45.986Z,0
2018-01-15T22:02:45.725Z,0
2018-01-15T22:03:46.269Z,0
2018-01-15T22:04:46.271Z,0
2018-01-15T22:05:45.956Z,0
2018-01-15T22:06:45.952Z,0
2018-01-15T22:07:45.702Z,0
2018-01-15T22:08:45.703Z,0
2018-01-15T22:09:45.843Z,0
2018-01-15T22:10:45.647Z,0
2018-01-15T22:11:45.907Z,0
2018-01-15T22:12:46.169Z,0
2018-01-15T22:13:45.889Z,0
2018-01-15T22:14:47.154Z,0
2018-01-15T22:15:46.147Z,0
2018-01-15T22:16:46.387Z,0
2018-01-15T22:17:46.237Z,0
2018-01-15T22:18:46.103Z,0
2018-01-15T22:19:47.227Z,0
2018-01-15T22:20:46.367Z,0
2018-01-15T22:21:46.132Z,0
2018-01-15T22:22:46.068Z,0
2018-01-15T22:23:45.768Z,0
2018-01-15T22:24:46.283Z,0
2018-01-15T22:25:46.351Z,0
2018-01-15T22:26:46.022Z,0
2018-01-15T22:27:45.633Z,0
2018-01-15T22:28:45.574Z,0
2018-01-15T22:29:45.623Z,0
2018-01-15T22:30:45.733Z,0
2018-01-15T22:31:45.889Z,0
2018-01-15T22:32:45.933Z,0
2018-01-15T22:33:45.591Z,0
2018-01-15T22:34:45.726Z,0
2018-01-15T22:35:45.636Z,0
2018-01-15T22:36:45.899Z,0
2018-01-15T22:37:45.928Z,0
2018-01-15T22:38:46.391Z,0
2018-01-15T22:39:46.028Z,0
2018-01-15T22:40:45.627Z,0
2018-01-15T22:41:45.931Z,0
2018-01-15T22:42:45.920Z,0
2018-01-15T22:43:45.909Z,0
2018-01-15T22:44:45.398Z,0
2018-01-15T22:45:47.476Z,0
2018-01-15T22:46:45.665Z,0
2018-01-15T22:47:45.667Z,0
2018-01-15T22:48:45.365Z,0
2018-01-15T22:49:45.620Z,0
2018-01-15T22:50:45.856Z,0
2018-01-15T22:51:45.876Z,0
2018-01-15T22:52:45.596Z,0
2018-01-15T22:53:45.583Z,0
2018-01-15T22:54:45.079Z,0
2018-01-15T22:55:45.064Z,0
2018-01-15T22:56:45.855Z,0
2018-01-15T22:57:45.560Z,0
2018-01-15T22:58:45.303Z,0
2018-01-15T22:59:45.285Z,0
2018-01-15T23:00:45.596Z,0
2018-01-15T23:01:45.523Z,0
2018-01-15T23:02:45.522Z,0
2018-01-15T23:03:45.264Z,0
2018-01-15T23:04:45.500Z,0
2018-01-15T23:05:45.771Z,0
2018-01-15T23:06:45.238Z,0
2018-01-15T23:07:45.486Z,0
2018-01-15T23:08:45.741Z,0
2018-01-15T23:09:45.221Z,0
2018-01-15T23:10:45.459Z,0
2018-01-15T23:11:45.468Z,0
2018-01-15T23:12:45.693Z,0
2018-01-15T23:13:45.435Z,0
2018-01-15T23:14:45.706Z,0
2018-01-15T23:15:47.381Z,0
2018-01-15T23:16:45.429Z,0
2018-01-15T23:17:45.411Z,0
2018-01-15T23:18:45.406Z,0
2018-01-15T23:19:45.686Z,0
2018-01-15T23:20:45.403Z,0
2018-01-15T23:21:45.646Z,0
2018-01-15T23:22:45.408Z,0
2018-01-15T23:23:45.626Z,0
2018-01-15T23:24:45.376Z,0
2018-01-15T23:25:45.379Z,0
2018-01-15T23:26:45.148Z,0
2018-01-15T23:27:45.362Z,0
2018-01-15T23:28:45.596Z,0
2018-01-15T23:29:45.334Z,0
2018-01-15T23:30:45.346Z,0
2018-01-15T23:31:45.588Z,0
2018-01-15T23:32:45.571Z,0
2018-01-15T23:33:45.057Z,0
2018-01-15T23:34:45.318Z,0
2018-01-15T23:35:45.293Z,0
2018-01-15T23:36:45.033Z,0
2018-01-15T23:37:45.286Z,0
2018-01-15T23:38:45.274Z,0
2018-01-15T23:39:45.288Z,0
2018-01-15T23:40:45.291Z,0
2018-01-15T23:41:45.248Z,0
2018-01-15T23:42:45.501Z,0
2018-01-15T23:43:45.496Z,0
2018-01-15T23:44:45.229Z,0
2018-01-15T23:45:45.468Z,0
2018-01-15T23:46:45.469Z,0
2018-01-15T23:47:45.225Z,0
2018-01-15T23:48:45.195Z,0
2018-01-15T23:49:45.446Z,0
2018-01-15T23:50:44.935Z,0
2018-01-15T23:51:45.258Z,0
2018-01-15T23:52:45.221Z,0
2018-01-15T23:53:45.165Z,0
2018-01-15T23:54:45.408Z,0
2018-01-15T23:55:45.163Z,0
2018-01-15T23:56:45.158Z,0
2018-01-15T23:57:45.137Z,0
2018-01-15T23:58:45.141Z,0
2018-01-15T23:59:45.415Z,0
